Time;durP1;ratioP1;P1;durP2;ratioP2;P2;SDS_P1;SDS_P2;PMS_P1;PMS_P2;Temp;Humidity;BMP_temperature;BMP_pressure;BME280_temperature;BME280_humidity;BME280_pressure;Samples;Min_cycle;Max_cycle;Signal;HPM_P1;HPM_P2
2022/08/31 00:05:24;;;;;;;3.28;2.90;;;25.40;46.60;26.20;101165.00;;;;5046521;28;20197;-40
2022/08/31 00:07:50;;;;;;;3.10;2.83;;;25.30;46.60;26.20;101169.00;;;;5046806;28;20261;-41
2022/08/31 00:10:17;;;;;;;3.97;2.60;;;25.30;46.60;26.20;101159.00;;;;5046183;28;20249;-41
2022/08/31 00:12:47;;;;;;;2.70;2.50;;;25.30;46.70;26.20;101156.00;;;;5045501;28;20185;-40
2022/08/31 00:15:17;;;;;;;3.22;2.70;;;25.30;46.70;26.10;101157.00;;;;5046837;28;20196;-40
2022/08/31 00:17:43;;;;;;;2.78;2.58;;;25.30;46.60;26.10;101160.00;;;;5064204;28;20190;-41
2022/08/31 00:20:10;;;;;;;2.72;2.50;;;25.20;46.60;26.10;101165.00;;;;5057320;28;20599;-41
2022/08/31 00:22:35;;;;;;;4.65;2.80;;;25.30;46.70;26.10;101159.00;;;;5045518;28;20176;-40
2022/08/31 00:25:01;;;;;;;5.22;2.75;;;25.20;46.60;26.10;101155.00;;;;5046443;28;20170;-40
2022/08/31 00:27:27;;;;;;;3.72;2.60;;;25.20;46.60;26.10;101152.00;;;;5046429;28;20179;-41
2022/08/31 00:29:53;;;;;;;2.92;2.67;;;25.20;46.60;26.10;101160.00;;;;5044781;28;20201;-42
2022/08/31 00:32:18;;;;;;;2.60;2.40;;;25.20;46.60;26.10;101156.00;;;;5045574;28;20273;-40
2022/08/31 00:34:44;;;;;;;4.53;2.70;;;25.20;46.80;26.10;101150.00;;;;5046633;28;20661;-41
2022/08/31 00:37:10;;;;;;;2.97;2.70;;;25.20;46.90;26.10;101148.00;;;;5046445;28;20635;-40
2022/08/31 00:39:36;;;;;;;3.00;2.70;;;25.10;47.30;26.00;101150.00;;;;5046310;28;20217;-43
2022/08/31 00:42:05;;;;;;;3.80;2.78;;;25.20;47.70;26.00;101143.00;;;;5046829;28;20573;-46
2022/08/31 00:44:30;;;;;;;3.08;2.72;;;25.20;47.70;26.10;101143.00;;;;5046972;28;20163;-43
2022/08/31 00:46:56;;;;;;;4.25;2.70;;;25.20;48.00;26.10;101142.00;;;;5046156;28;20661;-43
2022/08/31 00:49:28;;;;;;;6.50;3.00;;;25.20;48.50;26.10;101149.00;;;;5046060;28;20190;-45
2022/08/31 00:52:25;;;;;;;5.65;3.00;;;25.20;48.90;26.10;101136.00;;;;5045515;28;20229;-45
2022/08/31 00:54:57;;;;;;;5.68;2.97;;;25.30;49.10;26.10;101139.00;;;;5047231;28;20166;-44
2022/08/31 00:57:23;;;;;;;6.28;2.95;;;25.20;49.40;26.10;101136.00;;;;5050909;28;20811;-44
2022/08/31 00:59:49;;;;;;;3.70;2.70;;;25.20;49.30;26.10;101150.00;;;;5051134;28;20194;-45
2022/08/31 01:02:15;;;;;;;5.47;2.63;;;25.30;49.30;26.10;101144.00;;;;5051842;28;20193;-43
2022/08/31 01:04:41;;;;;;;3.65;2.60;;;25.20;49.00;26.10;101138.00;;;;5047798;28;20185;-44
2022/08/31 01:07:07;;;;;;;3.10;2.80;;;25.30;49.00;26.10;101131.00;;;;5053433;28;20182;-43
2022/08/31 01:09:36;;;;;;;2.75;2.50;;;25.30;49.00;26.10;101142.00;;;;5044454;28;20202;-44
2022/08/31 01:12:02;;;;;;;2.95;2.65;;;25.20;49.00;26.20;101138.00;;;;5044631;28;20888;-43
2022/08/31 01:14:28;;;;;;;2.88;2.60;;;25.20;49.10;26.20;101139.00;;;;5044656;28;20174;-42
2022/08/31 01:16:54;;;;;;;2.90;2.53;;;25.30;49.20;26.20;101125.00;;;;5045595;28;20201;-43
2022/08/31 01:19:33;;;;;;;2.72;2.40;;;25.30;49.20;26.20;101134.00;;;;5044559;28;20709;-43
2022/08/31 01:22:23;;;;;;;4.53;2.90;;;25.30;49.10;26.20;101138.00;;;;5045814;28;20220;-43
2022/08/31 01:24:49;;;;;;;3.58;2.83;;;25.30;49.10;26.20;101142.00;;;;5047887;28;20219;-44
2022/08/31 01:27:20;;;;;;;2.85;2.60;;;25.20;49.10;26.20;101145.00;;;;5043782;28;20213;-43
2022/08/31 01:29:45;;;;;;;2.72;2.40;;;25.20;49.10;26.20;101145.00;;;;5043320;28;20220;-44
2022/08/31 01:32:11;;;;;;;2.50;2.30;;;25.20;49.10;26.10;101145.00;;;;5044836;28;20166;-42
2022/08/31 01:34:37;;;;;;;2.80;2.60;;;25.20;49.20;26.10;101142.00;;;;5045689;28;20258;-45
2022/08/31 01:37:03;;;;;;;3.38;2.72;;;25.20;49.30;26.10;101138.00;;;;5045776;28;20237;-43
2022/08/31 01:39:28;;;;;;;2.80;2.50;;;25.20;49.30;26.10;101139.00;;;;5061189;28;20225;-42
2022/08/31 01:41:54;;;;;;;3.30;2.50;;;25.20;49.40;26.10;101137.00;;;;5046218;28;20246;-44
2022/08/31 01:44:22;;;;;;;2.80;2.50;;;25.20;49.40;26.10;101140.00;;;;5046181;28;20170;-46
2022/08/31 01:46:48;;;;;;;2.60;2.40;;;25.10;49.40;26.10;101147.00;;;;5048094;28;20182;-44
2022/08/31 01:49:15;;;;;;;2.88;2.60;;;25.10;49.40;26.10;101144.00;;;;5068799;28;20186;-45
2022/08/31 01:51:41;;;;;;;2.85;2.65;;;25.10;49.40;26.10;101140.00;;;;5059956;28;20189;-44
2022/08/31 01:54:07;;;;;;;2.67;2.47;;;25.10;49.50;26.10;101151.00;;;;5046291;28;20166;-43
2022/08/31 01:56:39;;;;;;;2.80;2.60;;;25.00;49.30;26.10;101149.00;;;;5046101;28;20190;-44
2022/08/31 01:59:05;;;;;;;2.75;2.55;;;25.10;49.40;26.10;101145.00;;;;5045626;28;20190;-45
2022/08/31 02:01:38;;;;;;;3.08;2.70;;;25.10;49.50;26.10;101139.00;;;;5044638;28;20250;-43
2022/08/31 02:04:05;;;;;;;2.70;2.50;;;25.00;49.40;26.10;101143.00;;;;5061154;28;20834;-43
2022/08/31 02:06:31;;;;;;;3.83;2.60;;;25.10;49.50;26.00;101143.00;;;;5046187;28;20217;-44
2022/08/31 02:08:57;;;;;;;2.70;2.50;;;25.10;49.50;26.00;101157.00;;;;5045526;28;20300;-44
2022/08/31 02:11:23;;;;;;;2.88;2.40;;;25.00;49.40;26.00;101157.00;;;;5045834;28;20570;-43
2022/08/31 02:13:49;;;;;;;2.70;2.50;;;25.00;49.40;26.00;101162.00;;;;5045866;28;20260;-44
2022/08/31 02:16:15;;;;;;;2.42;2.22;;;25.00;49.40;26.00;101164.00;;;;5047015;28;20175;-42
2022/08/31 02:18:41;;;;;;;2.85;2.40;;;25.00;49.50;26.00;101170.00;;;;5049234;28;20181;-44
2022/08/31 02:21:07;;;;;;;2.40;2.25;;;25.00;49.50;25.90;101168.00;;;;5049400;28;20228;-45
2022/08/31 02:23:32;;;;;;;2.78;2.35;;;25.00;49.60;25.90;101181.00;;;;5049597;28;20170;-44
2022/08/31 02:25:58;;;;;;;2.60;2.40;;;25.00;49.50;25.90;101172.00;;;;5049445;28;20182;-44
2022/08/31 02:28:24;;;;;;;2.60;2.40;;;25.00;49.50;25.90;101173.00;;;;5049241;28;20174;-42
2022/08/31 02:30:50;;;;;;;2.72;2.53;;;25.00;49.60;25.90;101177.00;;;;5049156;28;20185;-43
2022/08/31 02:33:16;;;;;;;2.42;2.22;;;24.90;49.50;25.90;101181.00;;;;5049072;28;20166;-45
2022/08/31 02:35:42;;;;;;;2.92;2.50;;;24.90;49.50;25.90;101163.00;;;;5049465;28;20256;-45
2022/08/31 02:38:08;;;;;;;3.25;2.30;;;24.90;49.60;25.90;101175.00;;;;5047855;28;20226;-44
2022/08/31 02:40:37;;;;;;;2.50;2.30;;;24.90;49.70;25.90;101165.00;;;;5049209;28;20183;-43
2022/08/31 02:43:07;;;;;;;2.40;2.20;;;24.90;49.70;25.80;101172.00;;;;5049425;28;20189;-44
2022/08/31 02:45:34;;;;;;;3.20;2.30;;;24.90;49.80;25.80;101173.00;;;;5049390;28;20154;-43
2022/08/31 02:48:01;;;;;;;3.03;2.45;;;24.90;49.80;25.80;101173.00;;;;5049290;28;20626;-43
2022/08/31 02:50:26;;;;;;;2.50;2.30;;;24.80;49.70;25.80;101173.00;;;;5053016;28;20190;-44
2022/08/31 02:52:55;;;;;;;2.50;2.30;;;24.80;49.70;25.80;101177.00;;;;5072913;28;20212;-44
2022/08/31 02:55:22;;;;;;;2.60;2.40;;;24.80;49.70;25.80;101181.00;;;;5072195;28;20602;-44
2022/08/31 02:57:49;;;;;;;2.33;2.13;;;24.80;49.70;25.70;101182.00;;;;5055359;28;20202;-45
2022/08/31 03:00:15;;;;;;;3.15;2.40;;;24.80;49.80;25.70;101165.00;;;;5048766;28;20186;-43
2022/08/31 03:02:41;;;;;;;2.33;2.20;;;24.80;49.80;25.70;101185.00;;;;5049502;28;20541;-43
2022/08/31 03:05:07;;;;;;;2.47;2.28;;;24.80;49.80;25.70;101186.00;;;;5050906;28;20170;-44
2022/08/31 03:07:36;;;;;;;2.65;2.45;;;24.80;49.90;25.70;101196.00;;;;5060727;28;20178;-45
2022/08/31 03:10:07;;;;;;;2.60;2.40;;;24.80;50.00;25.70;101196.00;;;;5065285;28;20710;-44
2022/08/31 03:12:33;;;;;;;2.42;2.30;;;24.80;50.10;25.70;101189.00;;;;5048754;28;20599;-45
2022/08/31 03:14:59;;;;;;;2.40;2.20;;;24.80;50.10;25.70;101186.00;;;;5048703;28;20227;-44
2022/08/31 03:17:25;;;;;;;2.40;2.20;;;24.70;50.00;25.70;101178.00;;;;5048179;28;20194;-44
2022/08/31 03:19:53;;;;;;;2.65;2.45;;;24.70;50.10;25.70;101190.00;;;;5048556;28;20236;-44
2022/08/31 03:22:18;;;;;;;2.60;2.40;;;24.70;50.20;25.70;101183.00;;;;5047232;28;20201;-43
2022/08/31 03:24:44;;;;;;;2.40;2.20;;;24.70;50.30;25.70;101175.00;;;;5048749;28;20809;-44
2022/08/31 03:27:10;;;;;;;2.70;2.50;;;24.70;50.20;25.70;101180.00;;;;5047603;28;20178;-43
2022/08/31 03:29:36;;;;;;;2.40;2.20;;;24.70;50.40;25.70;101188.00;;;;5048358;28;20191;-43
2022/08/31 03:32:01;;;;;;;3.85;2.08;;;24.70;50.40;25.70;101181.00;;;;5048261;28;20171;-43
2022/08/31 03:34:27;;;;;;;3.13;2.50;;;24.80;50.50;25.60;101181.00;;;;5048555;28;20185;-43
2022/08/31 03:36:53;;;;;;;2.45;2.25;;;24.80;50.40;25.70;101187.00;;;;5048061;28;20198;-44
2022/08/31 03:39:19;;;;;;;3.45;2.30;;;24.70;50.30;25.60;101181.00;;;;5048315;28;20190;-42
2022/08/31 03:41:44;;;;;;;4.35;2.60;;;24.80;51.40;25.60;101183.00;;;;5048128;28;20163;-45
2022/08/31 03:44:11;;;;;;;2.35;2.15;;;24.80;50.60;25.60;101179.00;;;;5048475;28;20208;-42
2022/08/31 03:46:38;;;;;;;3.38;2.40;;;24.80;50.50;25.60;101174.00;;;;5048279;28;20178;-43
2022/08/31 03:49:06;;;;;;;2.75;2.30;;;24.80;50.40;25.60;101167.00;;;;5048001;28;20190;-44
2022/08/31 03:51:32;;;;;;;3.08;2.50;;;24.70;50.70;25.60;101169.00;;;;5048072;28;20235;-44
2022/08/31 03:53:57;;;;;;;2.60;2.40;;;24.70;51.30;25.60;101167.00;;;;5046843;28;20277;-44
2022/08/31 03:56:23;;;;;;;4.43;2.72;;;24.70;52.00;25.60;101165.00;;;;5047835;28;20179;-44
2022/08/31 03:58:49;;;;;;;3.42;2.70;;;24.70;52.20;25.50;101168.00;;;;5048244;28;20595;-43
2022/08/31 04:01:15;;;;;;;3.72;2.50;;;24.60;51.80;25.50;101179.00;;;;5049129;28;20167;-44
2022/08/31 04:03:40;;;;;;;4.63;2.47;;;24.60;51.90;25.50;101174.00;;;;5048889;28;20169;-42
2022/08/31 04:06:09;;;;;;;4.22;2.78;;;24.60;52.10;25.50;101165.00;;;;5049128;28;20216;-43
2022/08/31 04:08:35;;;;;;;5.30;2.75;;;24.60;52.10;25.50;101160.00;;;;5048400;28;20182;-43
2022/08/31 04:11:13;;;;;;;4.38;2.65;;;24.60;52.30;25.40;101163.00;;;;5048541;28;20284;-43
2022/08/31 04:13:39;;;;;;;4.82;2.70;;;24.60;52.40;25.40;101165.00;;;;5055902;28;20178;-44
2022/08/31 04:16:07;;;;;;;2.80;2.50;;;24.50;52.30;25.40;101162.00;;;;5068167;28;20308;-42
2022/08/31 04:18:37;;;;;;;3.97;2.67;;;24.60;52.80;25.40;101167.00;;;;5067312;28;20189;-42
2022/08/31 04:21:04;;;;;;;4.97;2.90;;;24.60;53.30;25.40;101165.00;;;;5067919;28;20165;-46
2022/08/31 04:23:30;;;;;;;4.25;2.92;;;24.70;53.20;25.30;101171.00;;;;5067633;28;20189;-45
2022/08/31 04:25:56;;;;;;;5.95;3.40;;;24.70;52.90;25.30;101164.00;;;;5083661;28;20166;-44
2022/08/31 04:28:23;;;;;;;7.10;3.17;;;24.70;52.90;25.30;101155.00;;;;5090862;28;20196;-45
2022/08/31 04:30:49;;;;;;;7.85;3.08;;;24.70;52.70;25.30;101161.00;;;;5068831;28;20767;-43
2022/08/31 04:33:15;;;;;;;7.50;3.10;;;24.60;52.80;25.20;101164.00;;;;5067991;28;20166;-43
2022/08/31 04:35:41;;;;;;;4.32;3.20;;;24.50;52.90;25.20;101159.00;;;;5067852;28;20257;-43
2022/08/31 04:38:07;;;;;;;3.95;3.28;;;24.40;52.90;25.20;101162.00;;;;5067274;28;20843;-44
2022/08/31 04:40:36;;;;;;;3.42;3.13;;;24.30;53.20;25.10;101161.00;;;;5066857;28;20545;-44
2022/08/31 04:43:02;;;;;;;3.50;2.90;;;24.30;53.80;25.10;101166.00;;;;5066835;28;20268;-44
2022/08/31 04:45:28;;;;;;;4.85;3.30;;;24.40;53.20;25.10;101173.00;;;;5067471;28;20181;-44
2022/08/31 04:47:53;;;;;;;3.78;2.90;;;24.40;53.10;25.00;101175.00;;;;5067635;28;20235;-43
2022/08/31 04:50:19;;;;;;;3.20;2.90;;;24.40;52.80;25.10;101172.00;;;;5067326;28;20201;-44
2022/08/31 04:52:49;;;;;;;4.07;2.70;;;24.40;52.50;25.10;101175.00;;;;5067227;28;20200;-44
2022/08/31 04:55:15;;;;;;;3.13;2.83;;;24.40;52.60;25.10;101172.00;;;;5067701;28;20186;-42
2022/08/31 04:57:41;;;;;;;3.10;2.77;;;24.40;52.50;25.10;101181.00;;;;5067142;28;20252;-44
2022/08/31 05:00:08;;;;;;;3.05;2.80;;;24.30;52.40;25.10;101191.00;;;;5067351;28;20193;-44
2022/08/31 05:02:35;;;;;;;4.27;3.10;;;24.30;52.40;25.10;101183.00;;;;5067339;28;20901;-44
2022/08/31 05:05:01;;;;;;;5.03;3.17;;;24.30;52.50;25.10;101185.00;;;;5067312;28;20186;-42
2022/08/31 05:07:27;;;;;;;4.55;3.10;;;24.20;52.40;25.00;101194.00;;;;5067054;28;20231;-44
2022/08/31 05:09:53;;;;;;;5.05;3.10;;;24.20;52.50;25.00;101193.00;;;;5068781;28;20204;-43
2022/08/31 05:12:19;;;;;;;4.00;3.03;;;24.20;52.40;25.00;101190.00;;;;5067922;28;20180;-43
2022/08/31 05:14:44;;;;;;;3.97;2.97;;;24.20;52.50;25.00;101196.00;;;;5068778;28;20169;-44
2022/08/31 05:17:10;;;;;;;3.63;2.90;;;24.20;52.60;25.00;101188.00;;;;5068121;28;20185;-43
2022/08/31 05:19:36;;;;;;;3.40;3.10;;;24.20;52.60;25.00;101194.00;;;;5065917;28;20192;-43
2022/08/31 05:22:02;;;;;;;3.90;3.30;;;24.20;52.60;25.00;101189.00;;;;5066618;28;20170;-44
2022/08/31 05:24:34;;;;;;;3.10;2.87;;;24.10;52.50;25.00;101192.00;;;;5067231;28;20169;-42
2022/08/31 05:27:00;;;;;;;3.40;3.10;;;24.10;52.60;25.00;101192.00;;;;5067219;28;20177;-44
2022/08/31 05:29:25;;;;;;;3.30;3.00;;;24.10;52.60;24.90;101187.00;;;;5067088;28;20189;-43
2022/08/31 05:31:51;;;;;;;3.57;3.20;;;24.10;52.70;24.90;101186.00;;;;5067724;28;20793;-43
2022/08/31 05:34:17;;;;;;;3.60;2.80;;;24.10;52.60;24.90;101186.00;;;;5067266;28;20261;-43
2022/08/31 05:36:44;;;;;;;3.30;3.00;;;24.10;52.70;24.90;101182.00;;;;5067072;28;20609;-44
2022/08/31 05:39:11;;;;;;;4.40;3.20;;;24.10;52.70;24.90;101191.00;;;;5067028;28;20272;-43
2022/08/31 05:41:43;;;;;;;3.40;3.10;;;24.10;52.80;24.90;101192.00;;;;5066386;28;20158;-43
2022/08/31 05:44:09;;;;;;;3.13;2.90;;;24.10;52.70;24.90;101187.00;;;;5074046;28;20190;-44
2022/08/31 05:46:35;;;;;;;2.83;2.63;;;24.00;52.70;24.90;101197.00;;;;5087156;28;20190;-44
2022/08/31 05:49:01;;;;;;;3.13;2.92;;;24.00;52.70;24.90;101187.00;;;;5072582;28;20265;-44
2022/08/31 05:51:27;;;;;;;3.03;2.80;;;24.00;52.70;24.90;101184.00;;;;5068615;28;20170;-44
2022/08/31 05:53:53;;;;;;;3.30;3.07;;;24.00;52.80;24.80;101184.00;;;;5070908;28;20230;-42
2022/08/31 05:56:23;;;;;;;3.37;2.90;;;24.00;52.80;24.90;101189.00;;;;5071028;28;20236;-44
2022/08/31 05:58:49;;;;;;;3.13;2.90;;;24.00;52.80;24.90;101198.00;;;;5071179;28;20197;-43
2022/08/31 06:01:23;;;;;;;3.30;3.00;;;24.00;52.80;24.80;101197.00;;;;5069992;28;20196;-43
2022/08/31 06:03:49;;;;;;;3.23;2.80;;;24.00;52.90;24.80;101195.00;;;;5070366;28;20194;-44
2022/08/31 06:06:15;;;;;;;2.90;2.70;;;24.00;52.80;24.80;101199.00;;;;5070458;28;20196;-44
2022/08/31 06:08:41;;;;;;;3.00;2.80;;;24.00;52.80;24.80;101203.00;;;;5070360;28;20173;-42
2022/08/31 06:11:13;;;;;;;3.00;2.80;;;24.00;52.90;24.80;101201.00;;;;5068756;28;20178;-43
2022/08/31 06:13:39;;;;;;;3.10;2.80;;;24.00;52.90;24.80;101201.00;;;;5069817;28;20342;-44
2022/08/31 06:16:05;;;;;;;2.70;2.50;;;24.00;52.80;24.80;101200.00;;;;5070597;28;20169;-44
2022/08/31 06:18:31;;;;;;;2.80;2.60;;;24.10;52.90;24.80;101195.00;;;;5070337;28;20613;-44
2022/08/31 06:21:09;;;;;;;3.17;2.90;;;24.10;52.80;24.80;101200.00;;;;5068846;28;20190;-45
2022/08/31 06:23:36;;;;;;;3.10;2.80;;;24.00;52.60;24.80;101198.00;;;;5073945;28;20169;-44
2022/08/31 06:26:06;;;;;;;3.20;2.90;;;24.00;52.60;24.80;101205.00;;;;5073958;28;20176;-44
2022/08/31 06:28:33;;;;;;;3.23;2.90;;;24.10;52.60;24.80;101204.00;;;;5070053;28;20161;-43
2022/08/31 06:31:00;;;;;;;2.60;2.40;;;24.10;52.60;24.80;101200.00;;;;5070321;28;20253;-43
2022/08/31 06:33:26;;;;;;;3.27;2.90;;;24.10;52.60;24.80;101192.00;;;;5069729;28;20178;-43
2022/08/31 06:35:51;;;;;;;5.50;2.70;;;24.10;52.60;24.80;101198.00;;;;5070420;28;20833;-44
2022/08/31 06:38:17;;;;;;;6.53;2.80;;;24.10;52.70;24.80;101198.00;;;;5083245;28;20194;-44
2022/08/31 06:40:44;;;;;;;6.33;2.73;;;24.10;52.90;24.80;101212.00;;;;5090989;28;20174;-45
2022/08/31 06:43:10;;;;;;;3.27;2.50;;;24.10;52.80;24.80;101205.00;;;;5041837;28;20185;-44
2022/08/31 06:45:35;;;;;;;3.80;2.87;;;24.10;52.70;24.80;101207.00;;;;5069852;28;20201;-44
2022/08/31 06:48:02;;;;;;;5.63;3.27;;;24.10;52.60;24.80;101203.00;;;;5069297;28;20177;-44
2022/08/31 06:50:28;;;;;;;3.10;2.80;;;24.10;52.60;24.80;101209.00;;;;5069349;28;20222;-44
2022/08/31 06:52:54;;;;;;;4.57;2.80;;;24.10;52.70;24.80;101207.00;;;;5069533;28;20687;-43
2022/08/31 06:55:20;;;;;;;4.30;3.05;;;23.90;52.90;24.80;101204.00;;;;5069515;28;20217;-45
2022/08/31 06:57:46;;;;;;;5.80;3.10;;;23.90;53.30;24.80;101216.00;;;;4959720;28;20194;-42
2022/08/31 07:00:12;;;;;;;3.50;2.70;;;23.90;53.40;24.70;101149.00;;;;5085563;28;20250;-43
2022/08/31 07:02:38;;;;;;;3.90;2.77;;;23.90;53.40;24.70;101203.00;;;;5086967;28;20180;-44
2022/08/31 07:05:04;;;;;;;3.73;2.80;;;23.90;53.40;24.70;101211.00;;;;5093967;28;20162;-45
2022/08/31 07:07:30;;;;;;;3.23;2.80;;;23.90;53.40;24.70;101212.00;;;;5097739;28;20173;-43
2022/08/31 07:09:56;;;;;;;3.10;2.87;;;23.90;53.40;24.70;101213.00;;;;5089444;28;20228;-42
2022/08/31 07:12:21;;;;;;;4.30;3.40;;;23.90;53.50;24.70;101213.00;;;;5089584;28;20177;-43
2022/08/31 07:14:47;;;;;;;3.40;3.10;;;23.90;53.40;24.70;101217.00;;;;5081198;28;20227;-44
2022/08/31 07:17:13;;;;;;;4.27;2.90;;;23.90;53.40;24.70;101230.00;;;;5069267;28;20670;-44
2022/08/31 07:19:39;;;;;;;5.37;3.10;;;23.90;53.40;24.70;101220.00;;;;5069084;28;20812;-42
2022/08/31 07:22:06;;;;;;;4.23;2.83;;;24.00;53.50;24.70;101224.00;;;;5069101;28;20263;-43
2022/08/31 07:24:33;;;;;;;3.00;2.80;;;24.00;53.50;24.70;101222.00;;;;5068983;28;20280;-45
2022/08/31 07:27:08;;;;;;;6.30;3.17;;;24.00;53.50;24.80;101223.00;;;;5069154;28;20257;-44
2022/08/31 07:29:39;;;;;;;3.93;2.87;;;24.10;53.60;24.60;101218.00;;;;5069133;28;20276;-43
2022/08/31 07:32:10;;;;;;;5.77;3.03;;;24.00;53.90;24.80;101228.00;;;;5069178;28;20661;-42
2022/08/31 07:34:36;;;;;;;5.20;3.33;;;24.10;54.00;24.70;101226.00;;;;5068883;28;20162;-43
2022/08/31 07:42:43;;;;;;;4.37;2.80;;;24.10;54.50;24.70;101226.00;;;;5069222;28;20184;-43
2022/08/31 07:45:21;;;;;;;4.67;2.87;;;24.10;54.30;24.70;101235.00;;;;5069077;28;20170;-43
2022/08/31 07:47:53;;;;;;;3.93;2.90;;;24.10;54.90;24.70;101240.00;;;;5068703;28;20615;-44
2022/08/31 07:50:20;;;;;;;4.63;3.00;;;24.10;54.10;24.70;101238.00;;;;5069183;28;20255;-44
2022/08/31 07:52:50;;;;;;;10.83;3.00;;;24.10;54.10;24.80;101233.00;;;;5049013;28;20280;-43
2022/08/31 07:55:16;;;;;;;4.60;3.10;;;24.10;54.40;24.80;101239.00;;;;5048901;28;20182;-42
2022/08/31 07:57:43;;;;;;;5.17;3.07;;;24.10;54.40;24.70;101244.00;;;;5003234;28;20716;-42
2022/08/31 08:00:23;;;;;;;7.63;3.43;;;24.10;54.40;24.80;101249.00;;;;5088997;28;20192;-45
2022/08/31 08:02:49;;;;;;;5.53;2.93;;;24.10;54.40;24.80;101240.00;;;;5091906;28;20176;-42
2022/08/31 08:05:21;;;;;;;4.40;2.83;;;24.10;54.50;24.80;101246.00;;;;5088858;28;20169;-41
2022/08/31 08:07:49;;;;;;;6.03;2.87;;;24.10;54.60;24.80;101235.00;;;;5088551;28;20165;-42
2022/08/31 08:10:15;;;;;;;3.80;3.00;;;24.10;54.40;24.80;101238.00;;;;5088309;28;20740;-42
2022/08/31 08:12:43;;;;;;;3.10;2.80;;;24.10;54.40;24.70;101242.00;;;;5090897;28;20718;-41
2022/08/31 08:15:09;;;;;;;5.47;3.00;;;24.10;54.30;24.80;101237.00;;;;5088962;28;20149;-42
2022/08/31 08:17:36;;;;;;;4.87;3.10;;;24.10;54.40;24.80;101246.00;;;;5088521;28;20297;-43
2022/08/31 08:20:02;;;;;;;5.17;2.77;;;24.10;54.30;24.80;101247.00;;;;5088629;28;20220;-41
2022/08/31 08:22:28;;;;;;;3.13;2.77;;;24.10;54.30;24.80;101238.00;;;;5108588;28;20169;-42
2022/08/31 08:24:54;;;;;;;4.97;3.20;;;24.10;54.90;24.80;101252.00;;;;5106370;28;20176;-43
2022/08/31 08:27:20;;;;;;;3.07;2.70;;;24.10;54.30;24.80;101241.00;;;;5091552;28;20184;-42
2022/08/31 08:29:45;;;;;;;4.60;2.90;;;24.10;54.50;24.80;101241.00;;;;5090793;28;20192;-43
2022/08/31 08:32:11;;;;;;;6.90;3.07;;;24.10;54.30;24.80;101237.00;;;;5089525;28;20177;-43
2022/08/31 08:34:42;;;;;;;4.97;3.23;;;24.10;54.50;24.80;101244.00;;;;5089111;28;20261;-42
2022/08/31 08:37:09;;;;;;;4.20;2.73;;;24.10;54.50;24.80;101246.00;;;;5087799;28;20208;-42
2022/08/31 08:39:37;;;;;;;4.33;2.83;;;24.10;54.60;24.80;101245.00;;;;5087628;28;20189;-41
2022/08/31 08:42:03;;;;;;;5.37;3.10;;;24.10;54.50;24.80;101243.00;;;;5088109;28;20536;-41
2022/08/31 08:44:31;;;;;;;6.27;3.10;;;24.10;54.70;24.80;101247.00;;;;5086873;28;20173;-42
2022/08/31 08:46:59;;;;;;;6.57;3.30;;;24.10;54.90;24.80;101244.00;;;;5086117;28;20185;-41
2022/08/31 08:49:45;;;;;;;4.80;3.10;;;24.10;54.80;24.80;101245.00;;;;5086582;28;20782;-42
2022/08/31 08:52:29;;;;;;;5.60;3.10;;;24.10;55.00;24.80;101250.00;;;;5071651;28;20262;-41
2022/08/31 08:54:59;;;;;;;6.40;3.30;;;24.10;55.10;24.80;101253.00;;;;5067654;28;20176;-41
2022/08/31 08:57:34;;;;;;;6.07;3.50;;;24.10;55.10;24.80;101240.00;;;;4998871;28;20203;-43
2022/08/31 09:00:23;;;;;;;7.87;3.10;;;24.10;55.10;24.80;101250.00;;;;5089518;28;20176;-43
2022/08/31 09:03:43;;;;;;;4.87;3.20;;;24.10;55.20;24.80;101245.00;;;;5104532;28;20211;-43
2022/08/31 09:06:30;;;;;;;7.27;3.30;;;24.00;55.20;24.80;101246.00;;;;5087250;28;20177;-42
2022/08/31 09:09:16;;;;;;;4.90;3.20;;;24.00;55.00;24.80;101233.00;;;;5088331;28;20265;-42
2022/08/31 09:12:03;;;;;;;4.70;3.33;;;24.10;54.90;24.80;101244.00;;;;5090050;28;20176;-42
2022/08/31 09:15:14;;;;;;;4.80;3.10;;;24.10;55.80;24.80;101247.00;;;;5086559;28;20165;-42
2022/08/31 09:18:01;;;;;;;4.47;3.10;;;24.10;55.30;24.80;101253.00;;;;5056112;28;20219;-42
2022/08/31 09:20:27;;;;;;;4.47;3.30;;;24.10;55.60;24.80;101247.00;;;;5077041;28;20199;-43
2022/08/31 09:22:55;;;;;;;5.97;3.10;;;24.00;55.20;24.80;101247.00;;;;5089228;28;20180;-42
2022/08/31 09:25:32;;;;;;;4.00;3.33;;;24.10;55.50;24.80;101248.00;;;;5088053;28;20169;-42
2022/08/31 09:28:03;;;;;;;3.70;3.40;;;24.10;55.40;24.80;101251.00;;;;5086162;28;20185;-42
2022/08/31 09:30:44;;;;;;;5.13;3.10;;;24.10;55.50;24.80;101238.00;;;;5088188;28;20197;-41
2022/08/31 09:33:17;;;;;;;3.50;3.20;;;24.10;55.60;24.80;101179.00;;;;5087226;28;20171;-43
2022/08/31 09:35:43;;;;;;;3.30;3.00;;;24.10;55.70;24.80;101234.00;;;;5089297;28;20173;-43
2022/08/31 09:38:15;;;;;;;3.70;3.30;;;24.10;55.60;24.80;101243.00;;;;5088849;28;20223;-42
2022/08/31 09:40:47;;;;;;;3.50;3.20;;;24.10;55.60;24.90;101237.00;;;;5087436;28;20219;-42
2022/08/31 09:43:24;;;;;;;4.73;3.50;;;24.10;55.70;24.90;101234.00;;;;5087149;28;20652;-38
2022/08/31 09:46:07;;;;;;;3.93;3.53;;;24.10;55.80;24.90;101236.00;;;;5090999;28;20349;-40
2022/08/31 09:48:50;;;;;;;4.50;3.50;;;24.10;55.90;24.90;101236.00;;;;5095421;28;20173;-40
2022/08/31 09:51:24;;;;;;;4.43;4.00;;;24.10;56.40;24.80;101235.00;;;;5082205;28;20173;-39
2022/08/31 09:56:55;;;;;;;5.03;4.03;;;24.10;56.90;24.80;101243.00;;;;4995701;28;20880;-39
2022/08/31 09:59:42;;;;;;;4.13;3.73;;;24.10;56.60;24.80;101242.00;;;;5090755;28;20184;-39
2022/08/31 10:02:21;;;;;;;4.00;3.70;;;24.10;56.80;24.80;101236.00;;;;5087332;28;20526;-39
2022/08/31 10:04:56;;;;;;;4.27;3.87;;;24.00;56.50;24.70;101234.00;;;;5087303;28;20192;-40
2022/08/31 10:07:43;;;;;;;4.70;4.00;;;23.90;56.50;24.70;101242.00;;;;5086634;28;20181;-40
2022/08/31 10:10:29;;;;;;;5.27;4.10;;;23.90;56.50;24.70;101235.00;;;;5095597;28;20201;-39
2022/08/31 10:13:10;;;;;;;4.33;3.90;;;24.00;56.50;24.70;101233.00;;;;5106108;28;20216;-40
2022/08/31 10:15:51;;;;;;;3.93;3.50;;;24.00;56.60;24.70;101232.00;;;;5091194;28;20311;-42
2022/08/31 10:18:38;;;;;;;5.07;4.00;;;24.00;56.40;24.70;101219.00;;;;5087794;28;20208;-40
2022/08/31 10:21:14;;;;;;;4.27;3.77;;;24.00;56.70;24.70;101229.00;;;;5070848;28;20169;-40
2022/08/31 10:24:27;;;;;;;3.90;3.60;;;24.10;57.00;24.80;101236.00;;;;5069209;28;20195;-39
2022/08/31 10:27:22;;;;;;;4.87;4.00;;;24.10;56.90;24.80;101214.00;;;;5046163;28;20174;-40
2022/08/31 10:30:03;;;;;;;4.63;3.90;;;24.20;57.30;24.80;101227.00;;;;5045672;28;20230;-40
2022/08/31 10:32:41;;;;;;;4.37;3.60;;;24.20;57.10;24.80;101218.00;;;;5045805;28;20173;-41
2022/08/31 10:35:18;;;;;;;4.80;4.10;;;24.20;56.70;24.80;101229.00;;;;5045443;28;20162;-40
2022/08/31 10:38:09;;;;;;;4.00;3.70;;;24.20;56.60;24.90;101220.00;;;;5048836;28;20252;-40
2022/08/31 10:41:07;;;;;;;4.90;3.40;;;24.30;56.70;24.80;101221.00;;;;5050622;28;20198;-39
2022/08/31 10:43:44;;;;;;;5.20;4.20;;;24.30;56.70;24.90;101223.00;;;;5049207;28;20256;-39
2022/08/31 10:46:10;;;;;;;8.47;4.40;;;24.30;56.90;24.80;101231.00;;;;5048770;28;20627;-38
2022/08/31 10:48:49;;;;;;;7.07;3.70;;;24.30;56.30;24.90;101217.00;;;;5049728;28;20178;-40
2022/08/31 10:52:04;;;;;;;6.90;4.25;;;24.30;56.50;24.90;101217.00;;;;5056924;28;20307;-42
2022/08/31 10:54:38;;;;;;;7.47;4.13;;;24.30;56.40;24.90;101217.00;;;;5059694;28;20192;-41
2022/08/31 10:57:28;;;;;;;5.10;3.60;;;24.30;56.60;24.90;101224.00;;;;4998945;28;20795;-41
2022/08/31 11:00:07;;;;;;;4.60;4.20;;;24.30;56.60;24.90;101223.00;;;;5090452;28;20250;-40
2022/08/31 11:02:59;;;;;;;5.40;3.97;;;24.40;57.00;24.90;101221.00;;;;5089719;28;20176;-40
2022/08/31 11:06:04;;;;;;;5.73;4.27;;;24.40;57.30;24.90;101233.00;;;;5088480;28;20171;-39
2022/08/31 11:08:57;;;;;;;4.50;4.10;;;24.40;56.80;24.90;101237.00;;;;5088836;28;20252;-39
2022/08/31 11:11:43;;;;;;;4.23;3.90;;;24.40;56.90;24.90;101228.00;;;;5088383;28;20176;-41
2022/08/31 11:14:57;;;;;;;5.10;3.90;;;24.40;56.80;25.00;101233.00;;;;5089876;28;20255;-38